sensor_id;sensor_type;location;lat;lon;timestamp;P1;durP1;ratioP1;P2;durP2;ratioP2
13051;SDS011;6592;47.484;9.726;2022-12-18T00:00:05;26.90;;;9.87;;
13051;SDS011;6592;47.484;9.726;2022-12-18T00:02:34;29.83;;;10.10;;
13051;SDS011;6592;47.484;9.726;2022-12-18T00:05:03;36.10;;;12.00;;
13051;SDS011;6592;47.484;9.726;2022-12-18T00:07:31;28.13;;;10.17;;
13051;SDS011;6592;47.484;9.726;2022-12-18T00:09:59;28.60;;;9.57;;
13051;SDS011;6592;47.484;9.726;2022-12-18T00:12:29;33.13;;;11.07;;
13051;SDS011;6592;47.484;9.726;2022-12-18T00:14:57;36.43;;;11.83;;
13051;SDS011;6592;47.484;9.726;2022-12-18T00:17:26;30.40;;;11.23;;
13051;SDS011;6592;47.484;9.726;2022-12-18T00:19:54;36.57;;;12.00;;
13051;SDS011;6592;47.484;9.726;2022-12-18T00:22:22;31.83;;;11.33;;
13051;SDS011;6592;47.484;9.726;2022-12-18T00:24:50;38.13;;;12.00;;
13051;SDS011;6592;47.484;9.726;2022-12-18T00:27:19;41.73;;;12.23;;
13051;SDS011;6592;47.484;9.726;2022-12-18T00:29:49;33.53;;;10.03;;
13051;SDS011;6592;47.484;9.726;2022-12-18T00:32:17;30.57;;;10.80;;
13051;SDS011;6592;47.484;9.726;2022-12-18T00:34:45;28.53;;;11.00;;
13051;SDS011;6592;47.484;9.726;2022-12-18T00:37:13;30.90;;;11.10;;
13051;SDS011;6592;47.484;9.726;2022-12-18T00:39:47;35.47;;;10.53;;
13051;SDS011;6592;47.484;9.726;2022-12-18T00:42:16;27.83;;;10.93;;
13051;SDS011;6592;47.484;9.726;2022-12-18T00:45:03;29.27;;;10.63;;
13051;SDS011;6592;47.484;9.726;2022-12-18T00:47:38;33.23;;;10.53;;
13051;SDS011;6592;47.484;9.726;2022-12-18T00:50:07;30.27;;;10.80;;
13051;SDS011;6592;47.484;9.726;2022-12-18T00:52:41;29.23;;;10.20;;
13051;SDS011;6592;47.484;9.726;2022-12-18T00:55:10;33.40;;;10.17;;
13051;SDS011;6592;47.484;9.726;2022-12-18T00:57:39;31.23;;;10.90;;
13051;SDS011;6592;47.484;9.726;2022-12-18T01:00:10;24.47;;;9.43;;
13051;SDS011;6592;47.484;9.726;2022-12-18T01:02:40;32.47;;;10.93;;
13051;SDS011;6592;47.484;9.726;2022-12-18T01:05:09;24.97;;;9.10;;
13051;SDS011;6592;47.484;9.726;2022-12-18T01:07:39;30.23;;;10.67;;
13051;SDS011;6592;47.484;9.726;2022-12-18T01:10:09;27.30;;;9.23;;
13051;SDS011;6592;47.484;9.726;2022-12-18T01:12:39;27.45;;;9.40;;
13051;SDS011;6592;47.484;9.726;2022-12-18T01:15:07;22.03;;;8.00;;
13051;SDS011;6592;47.484;9.726;2022-12-18T01:17:39;16.20;;;5.70;;
13051;SDS011;6592;47.484;9.726;2022-12-18T01:20:07;16.00;;;5.83;;
13051;SDS011;6592;47.484;9.726;2022-12-18T01:22:37;18.03;;;6.30;;
13051;SDS011;6592;47.484;9.726;2022-12-18T01:25:06;21.53;;;7.37;;
13051;SDS011;6592;47.484;9.726;2022-12-18T01:27:35;20.17;;;7.10;;
13051;SDS011;6592;47.484;9.726;2022-12-18T01:30:03;18.20;;;6.73;;
13051;SDS011;6592;47.484;9.726;2022-12-18T01:32:34;14.73;;;6.27;;
13051;SDS011;6592;47.484;9.726;2022-12-18T01:35:02;18.87;;;6.17;;
13051;SDS011;6592;47.484;9.726;2022-12-18T01:37:31;15.43;;;6.33;;
13051;SDS011;6592;47.484;9.726;2022-12-18T01:40:00;14.70;;;6.40;;
13051;SDS011;6592;47.484;9.726;2022-12-18T01:42:28;14.47;;;5.20;;
13051;SDS011;6592;47.484;9.726;2022-12-18T01:44:58;11.23;;;4.50;;
13051;SDS011;6592;47.484;9.726;2022-12-18T01:47:30;16.10;;;5.60;;
13051;SDS011;6592;47.484;9.726;2022-12-18T01:50:04;12.63;;;4.03;;
13051;SDS011;6592;47.484;9.726;2022-12-18T01:52:35;15.07;;;5.17;;
13051;SDS011;6592;47.484;9.726;2022-12-18T01:55:06;14.43;;;5.00;;
13051;SDS011;6592;47.484;9.726;2022-12-18T01:57:35;13.37;;;5.30;;
13051;SDS011;6592;47.484;9.726;2022-12-18T02:00:06;12.70;;;4.63;;
13051;SDS011;6592;47.484;9.726;2022-12-18T02:02:38;14.98;;;5.72;;
13051;SDS011;6592;47.484;9.726;2022-12-18T02:05:08;16.67;;;5.70;;
13051;SDS011;6592;47.484;9.726;2022-12-18T02:07:45;16.47;;;5.83;;
13051;SDS011;6592;47.484;9.726;2022-12-18T02:10:24;15.43;;;5.23;;
13051;SDS011;6592;47.484;9.726;2022-12-18T02:12:56;13.57;;;5.57;;
13051;SDS011;6592;47.484;9.726;2022-12-18T02:15:35;16.37;;;5.00;;
13051;SDS011;6592;47.484;9.726;2022-12-18T02:18:08;15.93;;;4.57;;
13051;SDS011;6592;47.484;9.726;2022-12-18T02:20:40;14.83;;;4.87;;
13051;SDS011;6592;47.484;9.726;2022-12-18T02:23:23;14.20;;;4.90;;
13051;SDS011;6592;47.484;9.726;2022-12-18T02:26:06;14.53;;;5.67;;
13051;SDS011;6592;47.484;9.726;2022-12-18T02:28:41;15.27;;;5.37;;
13051;SDS011;6592;47.484;9.726;2022-12-18T02:31:14;14.30;;;5.03;;
13051;SDS011;6592;47.484;9.726;2022-12-18T02:33:45;14.13;;;4.80;;
13051;SDS011;6592;47.484;9.726;2022-12-18T02:36:15;10.63;;;4.10;;
13051;SDS011;6592;47.484;9.726;2022-12-18T02:38:45;13.13;;;5.00;;
13051;SDS011;6592;47.484;9.726;2022-12-18T02:41:16;11.80;;;4.20;;
13051;SDS011;6592;47.484;9.726;2022-12-18T02:43:46;10.70;;;4.25;;
13051;SDS011;6592;47.484;9.726;2022-12-18T02:46:29;10.67;;;4.13;;
13051;SDS011;6592;47.484;9.726;2022-12-18T02:49:12;15.27;;;4.57;;
13051;SDS011;6592;47.484;9.726;2022-12-18T02:51:50;11.60;;;5.07;;
13051;SDS011;6592;47.484;9.726;2022-12-18T02:54:23;19.50;;;5.20;;
13051;SDS011;6592;47.484;9.726;2022-12-18T02:57:09;15.37;;;4.93;;
13051;SDS011;6592;47.484;9.726;2022-12-18T02:59:45;13.00;;;5.17;;
13051;SDS011;6592;47.484;9.726;2022-12-18T03:02:21;12.77;;;4.27;;
13051;SDS011;6592;47.484;9.726;2022-12-18T03:04:55;13.10;;;4.60;;
13051;SDS011;6592;47.484;9.726;2022-12-18T03:07:34;15.57;;;5.40;;
13051;SDS011;6592;47.484;9.726;2022-12-18T03:10:06;18.57;;;6.27;;
13051;SDS011;6592;47.484;9.726;2022-12-18T03:12:41;15.07;;;4.40;;
13051;SDS011;6592;47.484;9.726;2022-12-18T03:15:15;12.33;;;3.80;;
13051;SDS011;6592;47.484;9.726;2022-12-18T03:17:50;14.63;;;4.90;;
13051;SDS011;6592;47.484;9.726;2022-12-18T03:20:22;21.13;;;5.87;;
13051;SDS011;6592;47.484;9.726;2022-12-18T03:22:53;17.77;;;5.63;;
13051;SDS011;6592;47.484;9.726;2022-12-18T03:25:27;15.63;;;4.77;;
13051;SDS011;6592;47.484;9.726;2022-12-18T03:27:59;16.87;;;5.37;;
13051;SDS011;6592;47.484;9.726;2022-12-18T03:30:30;12.80;;;4.27;;
13051;SDS011;6592;47.484;9.726;2022-12-18T03:33:02;11.23;;;4.27;;
13051;SDS011;6592;47.484;9.726;2022-12-18T03:35:36;10.90;;;4.53;;
13051;SDS011;6592;47.484;9.726;2022-12-18T03:38:07;14.83;;;4.13;;
13051;SDS011;6592;47.484;9.726;2022-12-18T03:40:41;13.03;;;4.63;;
13051;SDS011;6592;47.484;9.726;2022-12-18T03:43:18;12.70;;;4.50;;
13051;SDS011;6592;47.484;9.726;2022-12-18T03:45:54;12.60;;;4.17;;
13051;SDS011;6592;47.484;9.726;2022-12-18T03:48:30;10.87;;;3.93;;
13051;SDS011;6592;47.484;9.726;2022-12-18T03:51:05;12.93;;;4.27;;
13051;SDS011;6592;47.484;9.726;2022-12-18T03:53:39;14.13;;;4.27;;
13051;SDS011;6592;47.484;9.726;2022-12-18T03:56:12;10.47;;;4.07;;
13051;SDS011;6592;47.484;9.726;2022-12-18T03:58:44;15.93;;;4.67;;
13051;SDS011;6592;47.484;9.726;2022-12-18T04:01:15;15.93;;;4.60;;
13051;SDS011;6592;47.484;9.726;2022-12-18T04:03:46;11.57;;;4.67;;
13051;SDS011;6592;47.484;9.726;2022-12-18T04:06:16;13.13;;;4.47;;
13051;SDS011;6592;47.484;9.726;2022-12-18T04:08:45;10.80;;;4.37;;
13051;SDS011;6592;47.484;9.726;2022-12-18T04:11:14;14.03;;;4.93;;
13051;SDS011;6592;47.484;9.726;2022-12-18T04:13:44;11.30;;;4.50;;
13051;SDS011;6592;47.484;9.726;2022-12-18T04:16:13;12.33;;;4.63;;
13051;SDS011;6592;47.484;9.726;2022-12-18T04:18:41;13.53;;;4.77;;
13051;SDS011;6592;47.484;9.726;2022-12-18T04:21:10;12.70;;;4.20;;
13051;SDS011;6592;47.484;9.726;2022-12-18T04:23:38;13.77;;;4.10;;
13051;SDS011;6592;47.484;9.726;2022-12-18T04:26:07;9.43;;;3.57;;
13051;SDS011;6592;47.484;9.726;2022-12-18T04:28:35;9.80;;;3.70;;
13051;SDS011;6592;47.484;9.726;2022-12-18T04:31:05;11.80;;;4.20;;
13051;SDS011;6592;47.484;9.726;2022-12-18T04:33:33;15.83;;;4.87;;
13051;SDS011;6592;47.484;9.726;2022-12-18T04:36:02;10.40;;;4.03;;
13051;SDS011;6592;47.484;9.726;2022-12-18T04:38:30;8.33;;;3.90;;
13051;SDS011;6592;47.484;9.726;2022-12-18T04:40:59;12.63;;;4.13;;
13051;SDS011;6592;47.484;9.726;2022-12-18T04:43:27;9.43;;;4.13;;
13051;SDS011;6592;47.484;9.726;2022-12-18T04:46:00;10.90;;;3.57;;
13051;SDS011;6592;47.484;9.726;2022-12-18T04:48:31;13.83;;;4.60;;
13051;SDS011;6592;47.484;9.726;2022-12-18T04:51:00;13.47;;;4.77;;
13051;SDS011;6592;47.484;9.726;2022-12-18T04:53:28;11.00;;;4.30;;
13051;SDS011;6592;47.484;9.726;2022-12-18T04:56:03;13.43;;;4.27;;
13051;SDS011;6592;47.484;9.726;2022-12-18T04:58:33;8.97;;;3.53;;
13051;SDS011;6592;47.484;9.726;2022-12-18T05:01:02;9.63;;;3.50;;
13051;SDS011;6592;47.484;9.726;2022-12-18T05:03:32;11.27;;;4.13;;
13051;SDS011;6592;47.484;9.726;2022-12-18T05:06:00;12.50;;;3.53;;
13051;SDS011;6592;47.484;9.726;2022-12-18T05:08:29;12.17;;;4.73;;
13051;SDS011;6592;47.484;9.726;2022-12-18T05:10:58;12.47;;;4.27;;
13051;SDS011;6592;47.484;9.726;2022-12-18T05:13:27;10.90;;;4.03;;
13051;SDS011;6592;47.484;9.726;2022-12-18T05:15:56;11.67;;;4.37;;
13051;SDS011;6592;47.484;9.726;2022-12-18T05:18:25;13.10;;;4.70;;
13051;SDS011;6592;47.484;9.726;2022-12-18T05:20:55;11.87;;;4.57;;
13051;SDS011;6592;47.484;9.726;2022-12-18T05:23:23;11.13;;;4.53;;
13051;SDS011;6592;47.484;9.726;2022-12-18T05:25:52;12.73;;;4.60;;
13051;SDS011;6592;47.484;9.726;2022-12-18T05:28:21;11.17;;;4.43;;
13051;SDS011;6592;47.484;9.726;2022-12-18T05:30:51;11.20;;;3.90;;
13051;SDS011;6592;47.484;9.726;2022-12-18T05:33:21;12.97;;;5.10;;
13051;SDS011;6592;47.484;9.726;2022-12-18T05:35:51;15.87;;;4.73;;
13051;SDS011;6592;47.484;9.726;2022-12-18T05:38:21;11.00;;;4.10;;
13051;SDS011;6592;47.484;9.726;2022-12-18T05:40:51;16.58;;;5.90;;
13051;SDS011;6592;47.484;9.726;2022-12-18T05:43:20;11.20;;;4.57;;
13051;SDS011;6592;47.484;9.726;2022-12-18T05:45:50;12.83;;;4.50;;
13051;SDS011;6592;47.484;9.726;2022-12-18T05:48:19;12.73;;;3.87;;
13051;SDS011;6592;47.484;9.726;2022-12-18T05:50:48;10.33;;;4.20;;
13051;SDS011;6592;47.484;9.726;2022-12-18T05:53:18;15.57;;;5.10;;
13051;SDS011;6592;47.484;9.726;2022-12-18T05:55:48;11.23;;;4.28;;
13051;SDS011;6592;47.484;9.726;2022-12-18T05:58:16;9.77;;;4.07;;
13051;SDS011;6592;47.484;9.726;2022-12-18T06:00:45;11.33;;;4.27;;
13051;SDS011;6592;47.484;9.726;2022-12-18T06:03:13;13.73;;;4.43;;
13051;SDS011;6592;47.484;9.726;2022-12-18T06:05:43;12.37;;;5.07;;
13051;SDS011;6592;47.484;9.726;2022-12-18T06:08:12;13.50;;;4.43;;
13051;SDS011;6592;47.484;9.726;2022-12-18T06:10:48;12.57;;;4.10;;
13051;SDS011;6592;47.484;9.726;2022-12-18T06:13:18;13.60;;;4.13;;
13051;SDS011;6592;47.484;9.726;2022-12-18T06:15:47;12.70;;;4.23;;
13051;SDS011;6592;47.484;9.726;2022-12-18T06:18:16;16.03;;;5.00;;
13051;SDS011;6592;47.484;9.726;2022-12-18T06:20:44;10.67;;;3.67;;
13051;SDS011;6592;47.484;9.726;2022-12-18T06:23:13;9.53;;;3.93;;
13051;SDS011;6592;47.484;9.726;2022-12-18T06:25:43;11.23;;;3.80;;
13051;SDS011;6592;47.484;9.726;2022-12-18T06:28:11;11.13;;;3.77;;
13051;SDS011;6592;47.484;9.726;2022-12-18T06:30:40;10.53;;;3.63;;
13051;SDS011;6592;47.484;9.726;2022-12-18T06:33:12;12.27;;;4.20;;
13051;SDS011;6592;47.484;9.726;2022-12-18T06:35:40;9.10;;;3.57;;
13051;SDS011;6592;47.484;9.726;2022-12-18T06:38:09;14.23;;;4.67;;
13051;SDS011;6592;47.484;9.726;2022-12-18T06:40:37;10.70;;;4.10;;
13051;SDS011;6592;47.484;9.726;2022-12-18T06:43:08;9.47;;;3.70;;
13051;SDS011;6592;47.484;9.726;2022-12-18T06:45:36;9.40;;;3.50;;
13051;SDS011;6592;47.484;9.726;2022-12-18T06:48:05;11.97;;;3.93;;
13051;SDS011;6592;47.484;9.726;2022-12-18T06:50:33;9.90;;;3.77;;
13051;SDS011;6592;47.484;9.726;2022-12-18T06:53:02;11.27;;;4.07;;
13051;SDS011;6592;47.484;9.726;2022-12-18T06:55:32;7.63;;;3.10;;
13051;SDS011;6592;47.484;9.726;2022-12-18T06:58:00;13.33;;;4.10;;
13051;SDS011;6592;47.484;9.726;2022-12-18T07:00:30;10.77;;;3.30;;
13051;SDS011;6592;47.484;9.726;2022-12-18T07:02:59;11.10;;;3.43;;
13051;SDS011;6592;47.484;9.726;2022-12-18T07:05:27;9.50;;;4.27;;
13051;SDS011;6592;47.484;9.726;2022-12-18T07:07:57;10.23;;;3.63;;
13051;SDS011;6592;47.484;9.726;2022-12-18T07:10:26;11.40;;;4.27;;
13051;SDS011;6592;47.484;9.726;2022-12-18T07:12:54;11.40;;;4.50;;
13051;SDS011;6592;47.484;9.726;2022-12-18T07:15:23;12.13;;;4.33;;
13051;SDS011;6592;47.484;9.726;2022-12-18T07:17:53;11.00;;;3.93;;
13051;SDS011;6592;47.484;9.726;2022-12-18T07:20:21;14.87;;;4.43;;
13051;SDS011;6592;47.484;9.726;2022-12-18T07:22:49;12.10;;;4.23;;
13051;SDS011;6592;47.484;9.726;2022-12-18T07:25:21;10.03;;;4.80;;
13051;SDS011;6592;47.484;9.726;2022-12-18T07:27:49;10.33;;;4.13;;
13051;SDS011;6592;47.484;9.726;2022-12-18T07:30:18;12.53;;;4.67;;
13051;SDS011;6592;47.484;9.726;2022-12-18T07:32:47;11.40;;;4.30;;
13051;SDS011;6592;47.484;9.726;2022-12-18T07:35:16;14.67;;;4.63;;
13051;SDS011;6592;47.484;9.726;2022-12-18T07:37:50;10.23;;;4.20;;
13051;SDS011;6592;47.484;9.726;2022-12-18T07:40:18;10.23;;;4.07;;
13051;SDS011;6592;47.484;9.726;2022-12-18T07:42:47;14.90;;;4.47;;
13051;SDS011;6592;47.484;9.726;2022-12-18T07:45:15;16.00;;;6.80;;
13051;SDS011;6592;47.484;9.726;2022-12-18T07:47:43;12.13;;;5.23;;
13051;SDS011;6592;47.484;9.726;2022-12-18T07:50:11;14.87;;;4.83;;
13051;SDS011;6592;47.484;9.726;2022-12-18T07:52:41;12.40;;;4.77;;
13051;SDS011;6592;47.484;9.726;2022-12-18T07:55:10;15.20;;;4.67;;
13051;SDS011;6592;47.484;9.726;2022-12-18T07:57:38;18.00;;;5.27;;
13051;SDS011;6592;47.484;9.726;2022-12-18T08:00:17;20.60;;;6.37;;
13051;SDS011;6592;47.484;9.726;2022-12-18T08:02:46;18.67;;;7.63;;
13051;SDS011;6592;47.484;9.726;2022-12-18T08:05:15;13.70;;;5.63;;
13051;SDS011;6592;47.484;9.726;2022-12-18T08:07:45;14.80;;;5.27;;
13051;SDS011;6592;47.484;9.726;2022-12-18T08:10:13;12.20;;;4.60;;
13051;SDS011;6592;47.484;9.726;2022-12-18T08:12:41;11.70;;;4.77;;
13051;SDS011;6592;47.484;9.726;2022-12-18T08:15:11;11.00;;;4.33;;
13051;SDS011;6592;47.484;9.726;2022-12-18T08:17:39;5.33;;;2.67;;
13051;SDS011;6592;47.484;9.726;2022-12-18T08:20:08;13.27;;;3.67;;
13051;SDS011;6592;47.484;9.726;2022-12-18T08:22:36;12.13;;;4.17;;
13051;SDS011;6592;47.484;9.726;2022-12-18T08:25:07;12.90;;;4.57;;
13051;SDS011;6592;47.484;9.726;2022-12-18T08:27:35;11.60;;;4.53;;
13051;SDS011;6592;47.484;9.726;2022-12-18T08:30:04;11.67;;;4.63;;
13051;SDS011;6592;47.484;9.726;2022-12-18T08:32:33;11.53;;;3.80;;
13051;SDS011;6592;47.484;9.726;2022-12-18T08:35:02;14.43;;;5.07;;
13051;SDS011;6592;47.484;9.726;2022-12-18T08:37:31;13.83;;;5.17;;
13051;SDS011;6592;47.484;9.726;2022-12-18T08:39:59;12.90;;;4.27;;
13051;SDS011;6592;47.484;9.726;2022-12-18T08:42:29;11.40;;;4.13;;
13051;SDS011;6592;47.484;9.726;2022-12-18T08:45:23;12.50;;;4.47;;
13051;SDS011;6592;47.484;9.726;2022-12-18T08:47:52;11.80;;;4.33;;
13051;SDS011;6592;47.484;9.726;2022-12-18T08:50:21;10.53;;;3.53;;
13051;SDS011;6592;47.484;9.726;2022-12-18T08:52:49;15.13;;;4.20;;
13051;SDS011;6592;47.484;9.726;2022-12-18T08:55:17;27.23;;;8.53;;
13051;SDS011;6592;47.484;9.726;2022-12-18T08:57:49;19.07;;;6.50;;
13051;SDS011;6592;47.484;9.726;2022-12-18T09:00:18;15.32;;;5.57;;
13051;SDS011;6592;47.484;9.726;2022-12-18T09:02:46;17.73;;;5.27;;
13051;SDS011;6592;47.484;9.726;2022-12-18T09:05:15;22.63;;;6.50;;
13051;SDS011;6592;47.484;9.726;2022-12-18T09:07:43;15.50;;;5.20;;
13051;SDS011;6592;47.484;9.726;2022-12-18T09:10:11;19.30;;;7.63;;
13051;SDS011;6592;47.484;9.726;2022-12-18T09:12:39;15.87;;;5.07;;
13051;SDS011;6592;47.484;9.726;2022-12-18T09:15:09;15.43;;;4.93;;
13051;SDS011;6592;47.484;9.726;2022-12-18T09:17:38;12.87;;;4.83;;
13051;SDS011;6592;47.484;9.726;2022-12-18T09:20:06;15.30;;;5.00;;
13051;SDS011;6592;47.484;9.726;2022-12-18T09:22:35;13.63;;;4.43;;
13051;SDS011;6592;47.484;9.726;2022-12-18T09:25:05;13.03;;;4.37;;
13051;SDS011;6592;47.484;9.726;2022-12-18T09:27:34;17.40;;;5.57;;
13051;SDS011;6592;47.484;9.726;2022-12-18T09:30:03;15.90;;;5.37;;
13051;SDS011;6592;47.484;9.726;2022-12-18T09:32:33;13.23;;;4.90;;
13051;SDS011;6592;47.484;9.726;2022-12-18T09:35:02;11.90;;;4.57;;
13051;SDS011;6592;47.484;9.726;2022-12-18T09:37:30;10.60;;;4.17;;
13051;SDS011;6592;47.484;9.726;2022-12-18T09:39:58;10.40;;;4.47;;
13051;SDS011;6592;47.484;9.726;2022-12-18T09:42:26;13.47;;;4.70;;
13051;SDS011;6592;47.484;9.726;2022-12-18T09:44:55;9.90;;;4.17;;
13051;SDS011;6592;47.484;9.726;2022-12-18T09:47:24;14.33;;;4.40;;
13051;SDS011;6592;47.484;9.726;2022-12-18T09:49:58;11.80;;;4.23;;
13051;SDS011;6592;47.484;9.726;2022-12-18T09:52:30;9.53;;;3.60;;
13051;SDS011;6592;47.484;9.726;2022-12-18T09:55:03;9.93;;;3.87;;
13051;SDS011;6592;47.484;9.726;2022-12-18T09:57:39;12.63;;;3.97;;
13051;SDS011;6592;47.484;9.726;2022-12-18T10:00:15;10.03;;;4.37;;
13051;SDS011;6592;47.484;9.726;2022-12-18T10:02:46;11.57;;;4.15;;
13051;SDS011;6592;47.484;9.726;2022-12-18T10:05:17;14.30;;;4.37;;
13051;SDS011;6592;47.484;9.726;2022-12-18T10:07:53;14.93;;;4.37;;
13051;SDS011;6592;47.484;9.726;2022-12-18T10:10:32;12.87;;;4.80;;
13051;SDS011;6592;47.484;9.726;2022-12-18T10:13:12;11.27;;;4.13;;
13051;SDS011;6592;47.484;9.726;2022-12-18T10:15:52;14.20;;;4.67;;
13051;SDS011;6592;47.484;9.726;2022-12-18T10:18:31;15.87;;;4.27;;
13051;SDS011;6592;47.484;9.726;2022-12-18T10:21:33;14.57;;;4.40;;
13051;SDS011;6592;47.484;9.726;2022-12-18T10:24:08;21.75;;;6.90;;
13051;SDS011;6592;47.484;9.726;2022-12-18T10:26:44;17.73;;;7.17;;
13051;SDS011;6592;47.484;9.726;2022-12-18T10:29:15;33.37;;;16.03;;
13051;SDS011;6592;47.484;9.726;2022-12-18T10:31:44;19.03;;;5.50;;
13051;SDS011;6592;47.484;9.726;2022-12-18T10:34:12;14.67;;;5.23;;
13051;SDS011;6592;47.484;9.726;2022-12-18T10:36:42;18.97;;;5.90;;
13051;SDS011;6592;47.484;9.726;2022-12-18T10:39:14;18.17;;;6.03;;
13051;SDS011;6592;47.484;9.726;2022-12-18T10:41:43;18.33;;;6.33;;
13051;SDS011;6592;47.484;9.726;2022-12-18T10:44:14;14.47;;;5.67;;
13051;SDS011;6592;47.484;9.726;2022-12-18T10:46:45;19.57;;;6.10;;
13051;SDS011;6592;47.484;9.726;2022-12-18T10:49:19;17.03;;;5.30;;
13051;SDS011;6592;47.484;9.726;2022-12-18T10:51:52;16.83;;;6.13;;
13051;SDS011;6592;47.484;9.726;2022-12-18T10:54:33;18.20;;;6.82;;
13051;SDS011;6592;47.484;9.726;2022-12-18T10:57:15;21.75;;;7.88;;
13051;SDS011;6592;47.484;9.726;2022-12-18T10:59:51;20.35;;;7.30;;
13051;SDS011;6592;47.484;9.726;2022-12-18T11:02:28;24.40;;;8.23;;
13051;SDS011;6592;47.484;9.726;2022-12-18T11:05:02;22.35;;;8.27;;
13051;SDS011;6592;47.484;9.726;2022-12-18T11:07:53;23.27;;;8.55;;
13051;SDS011;6592;47.484;9.726;2022-12-18T11:10:22;21.35;;;8.95;;
13051;SDS011;6592;47.484;9.726;2022-12-18T11:12:54;22.60;;;9.10;;
13051;SDS011;6592;47.484;9.726;2022-12-18T11:15:24;23.63;;;9.40;;
13051;SDS011;6592;47.484;9.726;2022-12-18T11:17:56;23.90;;;9.75;;
13051;SDS011;6592;47.484;9.726;2022-12-18T11:20:27;22.60;;;9.57;;
13051;SDS011;6592;47.484;9.726;2022-12-18T11:23:00;21.58;;;9.45;;
13051;SDS011;6592;47.484;9.726;2022-12-18T11:25:32;23.23;;;10.20;;
13051;SDS011;6592;47.484;9.726;2022-12-18T11:28:02;23.67;;;9.90;;
13051;SDS011;6592;47.484;9.726;2022-12-18T11:30:32;23.67;;;9.80;;
13051;SDS011;6592;47.484;9.726;2022-12-18T11:33:03;23.90;;;9.40;;
13051;SDS011;6592;47.484;9.726;2022-12-18T11:35:41;22.58;;;10.20;;
13051;SDS011;6592;47.484;9.726;2022-12-18T11:38:20;22.88;;;9.77;;
13051;SDS011;6592;47.484;9.726;2022-12-18T11:40:52;21.27;;;9.68;;
13051;SDS011;6592;47.484;9.726;2022-12-18T11:43:27;19.08;;;9.27;;
13051;SDS011;6592;47.484;9.726;2022-12-18T11:45:59;17.58;;;8.20;;
13051;SDS011;6592;47.484;9.726;2022-12-18T11:48:30;16.98;;;7.60;;
13051;SDS011;6592;47.484;9.726;2022-12-18T11:51:05;18.88;;;7.82;;
13051;SDS011;6592;47.484;9.726;2022-12-18T11:53:41;19.58;;;7.93;;
13051;SDS011;6592;47.484;9.726;2022-12-18T11:56:15;20.65;;;7.70;;
13051;SDS011;6592;47.484;9.726;2022-12-18T11:58:56;19.70;;;7.63;;
13051;SDS011;6592;47.484;9.726;2022-12-18T12:01:34;17.85;;;7.68;;
13051;SDS011;6592;47.484;9.726;2022-12-18T12:04:31;19.85;;;7.82;;
13051;SDS011;6592;47.484;9.726;2022-12-18T12:07:14;19.63;;;7.35;;
13051;SDS011;6592;47.484;9.726;2022-12-18T12:12:28;18.20;;;7.20;;
13051;SDS011;6592;47.484;9.726;2022-12-18T12:15:17;18.65;;;7.32;;
13051;SDS011;6592;47.484;9.726;2022-12-18T12:17:54;22.05;;;7.60;;
13051;SDS011;6592;47.484;9.726;2022-12-18T12:20:39;20.67;;;7.65;;
13051;SDS011;6592;47.484;9.726;2022-12-18T12:23:15;18.35;;;7.07;;
13051;SDS011;6592;47.484;9.726;2022-12-18T12:25:55;21.52;;;6.72;;
13051;SDS011;6592;47.484;9.726;2022-12-18T12:28:31;20.77;;;7.82;;
13051;SDS011;6592;47.484;9.726;2022-12-18T12:31:23;19.20;;;7.47;;
13051;SDS011;6592;47.484;9.726;2022-12-18T12:34:02;18.45;;;6.95;;
13051;SDS011;6592;47.484;9.726;2022-12-18T12:36:38;21.83;;;7.95;;
13051;SDS011;6592;47.484;9.726;2022-12-18T12:39:16;17.90;;;5.97;;
13051;SDS011;6592;47.484;9.726;2022-12-18T12:41:50;17.90;;;6.70;;
13051;SDS011;6592;47.484;9.726;2022-12-18T12:44:38;23.90;;;7.18;;
13051;SDS011;6592;47.484;9.726;2022-12-18T12:47:14;19.55;;;6.97;;
13051;SDS011;6592;47.484;9.726;2022-12-18T12:49:47;20.60;;;6.80;;
13051;SDS011;6592;47.484;9.726;2022-12-18T12:52:27;20.92;;;7.53;;
13051;SDS011;6592;47.484;9.726;2022-12-18T12:54:58;18.48;;;6.90;;
13051;SDS011;6592;47.484;9.726;2022-12-18T12:57:33;18.30;;;6.85;;
13051;SDS011;6592;47.484;9.726;2022-12-18T13:00:07;23.55;;;7.05;;
13051;SDS011;6592;47.484;9.726;2022-12-18T13:02:42;20.05;;;6.00;;
13051;SDS011;6592;47.484;9.726;2022-12-18T13:05:17;16.60;;;6.47;;
13051;SDS011;6592;47.484;9.726;2022-12-18T13:08:11;19.52;;;7.03;;
13051;SDS011;6592;47.484;9.726;2022-12-18T13:10:52;16.85;;;6.13;;
13051;SDS011;6592;47.484;9.726;2022-12-18T13:13:49;18.85;;;6.63;;
13051;SDS011;6592;47.484;9.726;2022-12-18T13:16:18;18.58;;;6.55;;
13051;SDS011;6592;47.484;9.726;2022-12-18T13:18:50;17.55;;;6.50;;
13051;SDS011;6592;47.484;9.726;2022-12-18T13:21:21;18.55;;;6.65;;
13051;SDS011;6592;47.484;9.726;2022-12-18T13:23:53;16.60;;;5.80;;
13051;SDS011;6592;47.484;9.726;2022-12-18T13:26:29;15.93;;;5.77;;
13051;SDS011;6592;47.484;9.726;2022-12-18T13:29:00;18.37;;;6.40;;
13051;SDS011;6592;47.484;9.726;2022-12-18T13:34:47;22.97;;;6.73;;
13051;SDS011;6592;47.484;9.726;2022-12-18T13:43:28;17.33;;;6.53;;
13051;SDS011;6592;47.484;9.726;2022-12-18T13:46:02;18.20;;;6.17;;
13051;SDS011;6592;47.484;9.726;2022-12-18T13:48:50;19.17;;;6.37;;
13051;SDS011;6592;47.484;9.726;2022-12-18T13:51:21;21.53;;;7.10;;
13051;SDS011;6592;47.484;9.726;2022-12-18T13:53:51;20.50;;;7.00;;
13051;SDS011;6592;47.484;9.726;2022-12-18T13:56:23;19.15;;;7.10;;
13051;SDS011;6592;47.484;9.726;2022-12-18T13:59:14;17.23;;;6.73;;
13051;SDS011;6592;47.484;9.726;2022-12-18T14:01:50;20.47;;;6.53;;
13051;SDS011;6592;47.484;9.726;2022-12-18T14:04:25;22.40;;;7.03;;
13051;SDS011;6592;47.484;9.726;2022-12-18T14:06:56;20.73;;;6.80;;
13051;SDS011;6592;47.484;9.726;2022-12-18T14:09:27;16.70;;;6.20;;
13051;SDS011;6592;47.484;9.726;2022-12-18T14:11:59;18.03;;;6.37;;
13051;SDS011;6592;47.484;9.726;2022-12-18T14:14:46;17.03;;;6.07;;
13051;SDS011;6592;47.484;9.726;2022-12-18T14:17:22;23.43;;;7.53;;
13051;SDS011;6592;47.484;9.726;2022-12-18T14:19:51;20.73;;;8.33;;
13051;SDS011;6592;47.484;9.726;2022-12-18T14:22:20;22.23;;;7.10;;
13051;SDS011;6592;47.484;9.726;2022-12-18T14:25:05;14.13;;;5.63;;
13051;SDS011;6592;47.484;9.726;2022-12-18T14:27:42;19.93;;;6.30;;
13051;SDS011;6592;47.484;9.726;2022-12-18T14:30:23;19.63;;;6.57;;
13051;SDS011;6592;47.484;9.726;2022-12-18T14:33:04;15.77;;;6.10;;
13051;SDS011;6592;47.484;9.726;2022-12-18T14:35:37;17.90;;;5.57;;
13051;SDS011;6592;47.484;9.726;2022-12-18T14:38:10;15.07;;;5.60;;
13051;SDS011;6592;47.484;9.726;2022-12-18T14:40:46;15.73;;;5.70;;
13051;SDS011;6592;47.484;9.726;2022-12-18T14:43:15;14.60;;;5.60;;
13051;SDS011;6592;47.484;9.726;2022-12-18T14:45:43;19.87;;;6.37;;
13051;SDS011;6592;47.484;9.726;2022-12-18T14:48:15;17.67;;;4.53;;
13051;SDS011;6592;47.484;9.726;2022-12-18T14:50:55;22.23;;;6.20;;
13051;SDS011;6592;47.484;9.726;2022-12-18T14:53:32;16.03;;;6.03;;
13051;SDS011;6592;47.484;9.726;2022-12-18T14:56:03;19.77;;;5.90;;
13051;SDS011;6592;47.484;9.726;2022-12-18T14:58:45;17.10;;;6.13;;
13051;SDS011;6592;47.484;9.726;2022-12-18T15:01:19;17.93;;;6.43;;
13051;SDS011;6592;47.484;9.726;2022-12-18T15:03:50;17.35;;;5.07;;
13051;SDS011;6592;47.484;9.726;2022-12-18T15:06:24;18.07;;;6.80;;
13051;SDS011;6592;47.484;9.726;2022-12-18T15:09:00;24.35;;;7.47;;
13051;SDS011;6592;47.484;9.726;2022-12-18T15:11:35;26.17;;;6.75;;
13051;SDS011;6592;47.484;9.726;2022-12-18T15:14:21;23.10;;;7.30;;
13051;SDS011;6592;47.484;9.726;2022-12-18T15:16:51;25.27;;;7.37;;
13051;SDS011;6592;47.484;9.726;2022-12-18T15:19:22;22.63;;;6.83;;
13051;SDS011;6592;47.484;9.726;2022-12-18T15:21:56;23.00;;;6.23;;
13051;SDS011;6592;47.484;9.726;2022-12-18T15:24:31;20.33;;;7.23;;
13051;SDS011;6592;47.484;9.726;2022-12-18T15:27:00;21.43;;;7.57;;
13051;SDS011;6592;47.484;9.726;2022-12-18T15:29:29;23.53;;;7.93;;